Time;durP1;ratioP1;P1;durP2;ratioP2;P2;SDS_P1;SDS_P2;PMS_P1;PMS_P2;Temp;Humidity;BMP_temperature;BMP_pressure;BME280_temperature;BME280_humidity;BME280_pressure;Samples;Min_cycle;Max_cycle;Signal;HPM_P1;HPM_P2
2023/04/28 00:02:11;;;;;;;1.10;0.60;;;;;;;;;;5052034;28;20445;-79
2023/04/28 00:04:36;;;;;;;0.20;0.20;;;;;;;;;;5051910;28;20021;-79
2023/04/28 00:07:02;;;;;;;0.55;0.35;;;;;;;;;;5035328;28;20040;-79
2023/04/28 00:09:28;;;;;;;0.30;0.30;;;;;;;;;;5054198;28;20473;-80
2023/04/28 00:11:53;;;;;;;0.47;0.30;;;;;;;;;;5055933;28;20048;-79
2023/04/28 00:14:20;;;;;;;0.47;0.32;;;;;;;;;;5038556;28;20029;-79
2023/04/28 00:16:46;;;;;;;0.40;0.40;;;;;;;;;;5055508;28;20033;-79
2023/04/28 00:19:11;;;;;;;1.42;1.33;;;;;;;;;;5045399;28;20038;-80
2023/04/28 00:21:37;;;;;;;0.20;0.20;;;;;;;;;;5018310;28;20026;-79
2023/04/28 00:24:02;;;;;;;0.17;0.17;;;;;;;;;;5035261;28;20455;-79
2023/04/28 00:26:27;;;;;;;0.30;0.30;;;;;;;;;;5035761;28;20101;-79
2023/04/28 00:28:53;;;;;;;0.20;0.20;;;;;;;;;;5035183;28;20051;-79
2023/04/28 00:31:18;;;;;;;0.32;0.32;;;;;;;;;;5035461;28;20366;-79
2023/04/28 00:33:44;;;;;;;0.10;0.10;;;;;;;;;;5018869;28;20421;-79
2023/04/28 00:36:10;;;;;;;0.60;0.45;;;;;;;;;;5020075;28;20139;-78
2023/04/28 00:38:36;;;;;;;0.47;0.43;;;;;;;;;;5019073;28;20069;-80
2023/04/28 00:41:01;;;;;;;0.38;0.35;;;;;;;;;;5035878;28;20040;-79
2023/04/28 00:43:26;;;;;;;0.38;0.38;;;;;;;;;;5018365;28;20436;-79
2023/04/28 00:45:52;;;;;;;0.22;0.20;;;;;;;;;;5018973;28;20451;-79
2023/04/28 00:48:17;;;;;;;0.30;0.20;;;;;;;;;;5019163;28;20025;-79
2023/04/28 00:50:43;;;;;;;0.20;0.20;;;;;;;;;;5035662;28;20048;-81
2023/04/28 00:53:12;;;;;;;0.30;0.20;;;;;;;;;;5036115;28;20457;-79
2023/04/28 00:55:38;;;;;;;2.17;0.32;;;;;;;;;;5018393;28;20037;-79
2023/04/28 00:58:06;;;;;;;1.05;0.57;;;;;;;;;;5034427;28;20128;-79
2023/04/28 01:00:32;;;;;;;0.22;0.22;;;;;;;;;;5034858;28;20170;-79
2023/04/28 01:02:58;;;;;;;0.08;0.08;;;;;;;;;;5002238;28;20107;-80
2023/04/28 01:05:24;;;;;;;0.45;0.35;;;;;;;;;;5018293;28;20068;-79
2023/04/28 01:07:50;;;;;;;0.10;0.10;;;;;;;;;;5034578;28;20057;-80
2023/04/28 01:10:15;;;;;;;1.10;0.80;;;;;;;;;;5034168;28;20468;-79
2023/04/28 01:12:41;;;;;;;1.92;1.55;;;;;;;;;;5035554;28;20037;-78
2023/04/28 01:15:07;;;;;;;0.38;0.28;;;;;;;;;;5034727;28;20071;-78
2023/04/28 01:17:33;;;;;;;0.38;0.38;;;;;;;;;;5034671;28;20036;-78
2023/04/28 01:19:58;;;;;;;0.98;0.88;;;;;;;;;;5017042;28;20017;-79
2023/04/28 01:22:24;;;;;;;0.57;0.30;;;;;;;;;;5034000;28;20112;-79
2023/04/28 01:24:49;;;;;;;0.52;0.38;;;;;;;;;;5034270;28;20091;-78
2023/04/28 01:27:15;;;;;;;0.10;0.10;;;;;;;;;;5035101;28;20029;-77
2023/04/28 01:29:41;;;;;;;0.90;0.70;;;;;;;;;;5034289;28;20083;-78
2023/04/28 01:32:06;;;;;;;0.25;0.25;;;;;;;;;;5034025;28;20031;-77
2023/04/28 01:34:32;;;;;;;0.17;0.17;;;;;;;;;;5017572;28;20095;-78
2023/04/28 01:36:57;;;;;;;0.68;0.65;;;;;;;;;;5001467;28;20037;-79
2023/04/28 01:39:23;;;;;;;0.10;0.10;;;;;;;;;;5034310;28;20025;-79
2023/04/28 01:41:48;;;;;;;0.75;0.40;;;;;;;;;;5017137;28;20034;-78
2023/04/28 01:44:13;;;;;;;0.35;0.15;;;;;;;;;;5034096;28;20453;-77
2023/04/28 01:46:39;;;;;;;0.25;0.22;;;;;;;;;;5033975;28;20124;-77
2023/04/28 01:49:04;;;;;;;1.25;0.63;;;;;;;;;;5035193;28;20029;-77
2023/04/28 01:51:30;;;;;;;0.55;0.40;;;;;;;;;;5001437;28;20029;-78
2023/04/28 01:53:55;;;;;;;0.95;0.90;;;;;;;;;;5035502;28;20053;-77
2023/04/28 01:56:21;;;;;;;0.30;0.30;;;;;;;;;;5033509;28;20450;-78
2023/04/28 01:58:46;;;;;;;0.68;0.30;;;;;;;;;;5001055;28;20043;-80
2023/04/28 02:01:12;;;;;;;2.28;1.85;;;;;;;;;;5033685;28;20043;-80
2023/04/28 02:03:37;;;;;;;0.08;0.08;;;;;;;;;;5033692;28;20116;-80
2023/04/28 02:06:03;;;;;;;0.30;0.30;;;;;;;;;;5035127;28;20413;-78
2023/04/28 02:08:29;;;;;;;0.38;0.30;;;;;;;;;;5033670;28;20053;-77
2023/04/28 02:10:56;;;;;;;0.45;0.38;;;;;;;;;;5034485;28;20362;-77
2023/04/28 02:13:23;;;;;;;0.52;0.50;;;;;;;;;;5017897;28;20088;-78
2023/04/28 02:15:49;;;;;;;0.05;0.05;;;;;;;;;;5016991;28;20040;-78
2023/04/28 02:18:15;;;;;;;0.47;0.30;;;;;;;;;;5034653;28;20064;-80
2023/04/28 02:20:40;;;;;;;0.15;0.15;;;;;;;;;;5053064;28;20534;-80
2023/04/28 02:23:06;;;;;;;0.28;0.22;;;;;;;;;;5037022;28;20458;-80
2023/04/28 02:25:31;;;;;;;0.47;0.40;;;;;;;;;;5052828;28;20040;-79
2023/04/28 02:27:57;;;;;;;0.90;0.57;;;;;;;;;;5019979;28;20029;-79
2023/04/28 02:30:22;;;;;;;0.08;0.08;;;;;;;;;;5036629;28;20032;-80
2023/04/28 02:32:47;;;;;;;20.55;4.88;;;;;;;;;;5052714;28;20458;-79
2023/04/28 02:35:13;;;;;;;0.10;0.10;;;;;;;;;;5052975;28;20466;-81
2023/04/28 02:37:38;;;;;;;0.20;0.20;;;;;;;;;;5052954;28;20033;-79
2023/04/28 02:40:05;;;;;;;1.02;1.02;;;;;;;;;;5035900;28;20033;-79
2023/04/28 02:42:32;;;;;;;0.90;0.88;;;;;;;;;;5053097;28;20040;-80
2023/04/28 02:44:58;;;;;;;1.58;0.63;;;;;;;;;;5047614;28;20033;-81
2023/04/28 02:47:23;;;;;;;0.40;0.40;;;;;;;;;;5016528;28;20347;-78
2023/04/28 02:49:48;;;;;;;0.70;0.50;;;;;;;;;;5032882;28;20037;-79
2023/04/28 02:52:14;;;;;;;0.52;0.38;;;;;;;;;;5032642;28;20033;-78
2023/04/28 02:54:40;;;;;;;0.52;0.52;;;;;;;;;;5031703;28;20055;-78
2023/04/28 02:57:05;;;;;;;0.20;0.20;;;;;;;;;;5016386;28;20087;-79
2023/04/28 02:59:31;;;;;;;0.85;0.85;;;;;;;;;;5033843;28;20029;-78
2023/04/28 03:01:56;;;;;;;0.20;0.20;;;;;;;;;;5016220;28;20102;-78
2023/04/28 03:04:22;;;;;;;0.10;0.10;;;;;;;;;;5016058;28;20042;-78
2023/04/28 03:06:47;;;;;;;1.55;0.40;;;;;;;;;;5032603;28;20049;-77
2023/04/28 03:09:13;;;;;;;0.30;0.30;;;;;;;;;;5032510;28;20358;-79
2023/04/28 03:11:40;;;;;;;0.52;0.35;;;;;;;;;;5016320;28;20029;-79
2023/04/28 03:14:05;;;;;;;0.85;0.45;;;;;;;;;;5032410;28;20108;-78
2023/04/28 03:16:31;;;;;;;0.70;0.40;;;;;;;;;;5032242;28;20113;-79
2023/04/28 03:18:56;;;;;;;0.70;0.60;;;;;;;;;;5021765;28;20412;-78
2023/04/28 03:21:21;;;;;;;0.20;0.20;;;;;;;;;;5035998;28;20063;-78
2023/04/28 03:23:47;;;;;;;0.17;0.17;;;;;;;;;;5019204;28;20029;-78
2023/04/28 03:26:13;;;;;;;5.78;0.75;;;;;;;;;;5035968;28;20033;-78
2023/04/28 03:28:38;;;;;;;0.35;0.35;;;;;;;;;;5035753;28;20167;-78
2023/04/28 03:31:04;;;;;;;0.30;0.30;;;;;;;;;;5035701;28;20032;-79
2023/04/28 03:33:30;;;;;;;0.20;0.20;;;;;;;;;;5035895;28;20450;-79
2023/04/28 03:35:55;;;;;;;0.10;0.10;;;;;;;;;;5035830;28;20033;-79
2023/04/28 03:38:21;;;;;;;0.45;0.45;;;;;;;;;;5052141;28;20037;-78
2023/04/28 03:40:46;;;;;;;1.25;0.50;;;;;;;;;;5053535;28;20028;-78
2023/04/28 03:43:12;;;;;;;0.40;0.40;;;;;;;;;;5053686;28;20029;-77
2023/04/28 03:45:37;;;;;;;0.82;0.57;;;;;;;;;;5056570;28;20039;-80
2023/04/28 03:48:03;;;;;;;0.43;0.40;;;;;;;;;;5023053;28;20107;-78
2023/04/28 03:50:28;;;;;;;2.15;1.15;;;;;;;;;;5036353;28;20026;-78
2023/04/28 03:52:54;;;;;;;0.80;0.75;;;;;;;;;;5019334;28;20025;-78
2023/04/28 03:55:20;;;;;;;1.00;0.50;;;;;;;;;;5036155;28;20037;-78
2023/04/28 03:57:46;;;;;;;0.20;0.20;;;;;;;;;;5003228;28;20037;-79
2023/04/28 04:00:12;;;;;;;1.15;0.77;;;;;;;;;;5035884;28;20048;-79
2023/04/28 04:02:37;;;;;;;0.52;0.45;;;;;;;;;;5019282;28;20060;-78
2023/04/28 04:05:03;;;;;;;2.20;0.50;;;;;;;;;;5035933;28;20427;-78
2023/04/28 04:07:28;;;;;;;0.15;0.15;;;;;;;;;;5035443;28;20052;-78
2023/04/28 04:09:54;;;;;;;2.05;0.68;;;;;;;;;;5019207;28;20057;-77
2023/04/28 04:12:19;;;;;;;1.35;0.50;;;;;;;;;;5036827;28;20017;-77
2023/04/28 04:14:44;;;;;;;0.30;0.25;;;;;;;;;;5032714;28;20072;-77
2023/04/28 04:17:10;;;;;;;1.13;0.93;;;;;;;;;;5015180;28;20102;-80
2023/04/28 04:19:35;;;;;;;1.05;0.43;;;;;;;;;;5049360;28;20021;-77
2023/04/28 04:22:01;;;;;;;5.18;0.65;;;;;;;;;;5038225;28;20041;-77
2023/04/28 04:24:26;;;;;;;0.20;0.20;;;;;;;;;;5055120;28;20080;-77
2023/04/28 04:26:51;;;;;;;4.40;2.80;;;;;;;;;;5055187;28;20032;-79
2023/04/28 04:29:17;;;;;;;0.60;0.60;;;;;;;;;;5055427;28;20033;-78
2023/04/28 04:31:44;;;;;;;0.60;0.43;;;;;;;;;;5055083;28;20021;-81
2023/04/28 04:34:10;;;;;;;0.17;0.17;;;;;;;;;;5054917;28;20056;-78
2023/04/28 04:36:35;;;;;;;0.50;0.50;;;;;;;;;;5055261;28;20079;-82
2023/04/28 04:39:00;;;;;;;0.47;0.45;;;;;;;;;;5047488;28;20045;-79
2023/04/28 04:41:26;;;;;;;0.65;0.63;;;;;;;;;;5051610;28;20025;-80
2023/04/28 04:43:51;;;;;;;1.42;0.88;;;;;;;;;;5052459;28;20132;-82
2023/04/28 04:46:17;;;;;;;1.15;1.05;;;;;;;;;;5034851;28;20477;-81
2023/04/28 04:48:42;;;;;;;2.22;0.93;;;;;;;;;;5048695;28;20040;-84
2023/04/28 04:51:08;;;;;;;2.05;1.35;;;;;;;;;;5054522;28;20116;-81
2023/04/28 04:53:34;;;;;;;1.90;1.77;;;;;;;;;;5052916;28;20032;-80
2023/04/28 04:55:59;;;;;;;3.22;2.00;;;;;;;;;;5052193;28;20079;-80
2023/04/28 04:58:25;;;;;;;2.63;1.35;;;;;;;;;;5056738;28;20021;-80
2023/04/28 05:00:51;;;;;;;4.45;2.72;;;;;;;;;;5056095;28;20032;-81
2023/04/28 05:03:16;;;;;;;2.22;1.60;;;;;;;;;;5060552;28;20025;-79
2023/04/28 05:05:43;;;;;;;4.68;3.67;;;;;;;;;;5060378;28;20025;-80
2023/04/28 05:08:10;;;;;;;3.50;2.75;;;;;;;;;;5053209;28;20485;-81
2023/04/28 05:10:48;;;;;;;;;;;;;;;;;;;;;
2023/04/28 05:13:14;;;;;;;0.88;0.88;;;;;;;;;;5230227;22;20180;-83
2023/04/28 05:15:41;;;;;;;2.28;1.60;;;;;;;;;;5005845;28;20710;-82
2023/04/28 05:18:09;;;;;;;1.73;1.20;;;;;;;;;;5047885;28;20021;-82
2023/04/28 05:20:35;;;;;;;2.00;1.20;;;;;;;;;;5064511;28;20378;-81
2023/04/28 05:23:02;;;;;;;1.08;0.95;;;;;;;;;;5047184;28;20037;-85
2023/04/28 05:25:32;;;;;;;1.25;1.02;;;;;;;;;;5068517;28;20038;-85
2023/04/28 05:28:01;;;;;;;1.77;0.90;;;;;;;;;;5030443;28;20037;-84
2023/04/28 05:30:27;;;;;;;1.52;0.93;;;;;;;;;;5056460;28;20029;-85
2023/04/28 05:32:54;;;;;;;1.63;0.90;;;;;;;;;;5038349;28;20103;-84
2023/04/28 05:35:20;;;;;;;1.70;0.80;;;;;;;;;;5057154;28;20086;-84
2023/04/28 05:37:45;;;;;;;1.83;1.35;;;;;;;;;;5066702;28;20021;-82
2023/04/28 05:40:20;;;;;;;0.70;0.70;;;;;;;;;;5066250;28;20040;-85
2023/04/28 05:42:45;;;;;;;2.15;0.70;;;;;;;;;;5064956;28;20032;-86
2023/04/28 05:45:11;;;;;;;1.92;0.82;;;;;;;;;;5047418;28;20097;-86
2023/04/28 05:47:51;;;;;;;1.63;1.00;;;;;;;;;;5051424;28;20033;-87
2023/04/28 05:50:17;;;;;;;1.75;0.80;;;;;;;;;;5033043;28;20029;-86
2023/04/28 05:52:43;;;;;;;1.33;1.23;;;;;;;;;;5033606;28;20028;-81
2023/04/28 05:55:09;;;;;;;3.00;1.45;;;;;;;;;;5061543;28;20033;-80
2023/04/28 05:57:35;;;;;;;2.03;1.58;;;;;;;;;;5037213;28;20037;-80
2023/04/28 06:00:00;;;;;;;1.17;1.05;;;;;;;;;;5064178;28;20031;-80
2023/04/28 06:03:09;;;;;;;1.70;1.10;;;;;;;;;;5021466;28;20030;-80
2023/04/28 06:05:35;;;;;;;2.80;1.10;;;;;;;;;;5031970;28;20095;-82
2023/04/28 06:11:24;;;;;;;1.33;1.13;;;;;;;;;;5039490;28;20061;-79
2023/04/28 06:13:50;;;;;;;1.83;1.33;;;;;;;;;;5041335;28;20045;-82
2023/04/28 06:16:16;;;;;;;2.17;1.58;;;;;;;;;;5064579;28;20032;-79
2023/04/28 06:19:23;;;;;;;1.85;1.20;;;;;;;;;;5018726;28;20036;-81
2023/04/28 06:21:49;;;;;;;2.13;1.65;;;;;;;;;;5027467;28;20036;-81
2023/04/28 06:24:14;;;;;;;2.35;1.70;;;;;;;;;;5063786;28;20036;-81
2023/04/28 06:26:56;;;;;;;1.75;1.40;;;;;;;;;;5064628;28;20431;-80
2023/04/28 06:29:28;;;;;;;3.05;1.75;;;;;;;;;;5033060;28;20127;-81
2023/04/28 06:31:56;;;;;;;2.88;1.60;;;;;;;;;;5063884;28;20032;-81
2023/04/28 06:37:48;;;;;;;5.95;1.80;;;;;;;;;;5050327;28;20103;-81
2023/04/28 06:40:14;;;;;;;2.27;1.63;;;;;;;;;;5021312;28;20538;-79
2023/04/28 06:42:45;;;;;;;2.10;1.60;;;;;;;;;;5044215;28;20037;-80
2023/04/28 06:45:11;;;;;;;5.43;1.30;;;;;;;;;;5044465;28;20088;-83
2023/04/28 06:47:39;;;;;;;2.95;1.80;;;;;;;;;;5058912;28;20037;-80
2023/04/28 06:50:05;;;;;;;2.03;1.63;;;;;;;;;;5026707;28;20021;-78
2023/04/28 06:52:30;;;;;;;3.03;1.80;;;;;;;;;;5062228;28;20060;-79
2023/04/28 06:55:02;;;;;;;2.58;1.75;;;;;;;;;;5073289;28;20040;-78
2023/04/28 06:57:28;;;;;;;4.32;2.30;;;;;;;;;;5060915;28;20035;-79
2023/04/28 06:59:56;;;;;;;2.60;1.85;;;;;;;;;;5077454;28;20016;-81
2023/04/28 07:02:22;;;;;;;5.20;1.70;;;;;;;;;;5078794;28;20070;-80
2023/04/28 07:04:48;;;;;;;1.80;1.60;;;;;;;;;;5060087;28;20270;-82
2023/04/28 07:07:13;;;;;;;2.78;1.52;;;;;;;;;;5060567;28;20092;-82
2023/04/28 07:09:39;;;;;;;3.25;2.22;;;;;;;;;;5061853;28;20080;-84
2023/04/28 07:12:04;;;;;;;3.70;2.20;;;;;;;;;;5062547;28;20024;-79
2023/04/28 07:14:30;;;;;;;1.95;1.42;;;;;;;;;;5068425;28;20037;-79
2023/04/28 07:16:56;;;;;;;4.47;1.52;;;;;;;;;;5043652;28;20037;-77
2023/04/28 07:19:22;;;;;;;2.63;2.03;;;;;;;;;;5046192;28;20116;-78
2023/04/28 07:21:52;;;;;;;3.92;2.20;;;;;;;;;;5045367;28;20033;-77
2023/04/28 07:24:22;;;;;;;4.05;1.90;;;;;;;;;;5064294;28;20051;-76
2023/04/28 07:26:49;;;;;;;3.20;2.20;;;;;;;;;;5046033;28;20057;-77
2023/04/28 07:29:15;;;;;;;4.05;1.88;;;;;;;;;;5061123;28;20033;-77
2023/04/28 07:31:40;;;;;;;5.40;2.20;;;;;;;;;;5062860;28;20094;-78
2023/04/28 07:34:06;;;;;;;2.67;1.73;;;;;;;;;;5041109;28;20070;-77
2023/04/28 07:36:32;;;;;;;2.60;1.77;;;;;;;;;;5052832;28;20025;-77
2023/04/28 07:38:59;;;;;;;3.20;1.85;;;;;;;;;;5048932;28;20113;-78
2023/04/28 07:41:26;;;;;;;1.80;1.30;;;;;;;;;;5048047;28;20017;-77
2023/04/28 07:43:52;;;;;;;1.85;1.45;;;;;;;;;;5027576;28;20057;-78
2023/04/28 07:46:17;;;;;;;1.48;1.20;;;;;;;;;;5047693;28;20052;-76
2023/04/28 07:48:43;;;;;;;2.53;1.98;;;;;;;;;;5024909;28;20043;-76
2023/04/28 07:51:36;;;;;;;1.60;1.33;;;;;;;;;;5034154;28;20025;-78
2023/04/28 07:54:01;;;;;;;5.03;1.85;;;;;;;;;;5048612;28;20120;-76
2023/04/28 07:56:27;;;;;;;2.72;1.90;;;;;;;;;;5054525;28;20495;-77
2023/04/28 07:58:52;;;;;;;2.67;1.92;;;;;;;;;;5046406;28;20060;-77
2023/04/28 08:01:18;;;;;;;3.35;1.90;;;;;;;;;;5036589;28;20623;-78
2023/04/28 08:04:05;;;;;;;3.65;2.17;;;;;;;;;;5011812;28;20026;-77
2023/04/28 08:06:49;;;;;;;2.75;1.60;;;;;;;;;;5036575;28;20154;-77
2023/04/28 08:09:15;;;;;;;2.20;1.88;;;;;;;;;;5024341;28;20081;-78
2023/04/28 08:11:40;;;;;;;4.00;1.77;;;;;;;;;;5041590;28;20045;-79
2023/04/28 08:14:06;;;;;;;2.03;1.55;;;;;;;;;;5058597;28;20029;-77
2023/04/28 08:16:33;;;;;;;3.58;2.00;;;;;;;;;;5057604;28;20048;-78
2023/04/28 08:18:59;;;;;;;1.55;1.33;;;;;;;;;;5040229;28;20442;-77
2023/04/28 08:21:24;;;;;;;2.20;1.48;;;;;;;;;;5058499;28;20056;-77
2023/04/28 08:23:50;;;;;;;2.25;1.90;;;;;;;;;;5037365;28;20382;-77
2023/04/28 08:26:16;;;;;;;2.83;1.75;;;;;;;;;;5038931;28;20127;-77
2023/04/28 08:28:42;;;;;;;2.83;1.58;;;;;;;;;;5040249;28;20029;-77
2023/04/28 08:31:09;;;;;;;1.77;1.38;;;;;;;;;;5062229;28;20724;-79
2023/04/28 08:33:35;;;;;;;1.88;1.60;;;;;;;;;;5063139;28;20056;-78
2023/04/28 08:36:00;;;;;;;1.83;1.00;;;;;;;;;;5047176;28;20029;-78
2023/04/28 08:38:26;;;;;;;2.67;1.40;;;;;;;;;;5054509;28;20030;-76
2023/04/28 08:40:51;;;;;;;2.80;1.33;;;;;;;;;;5053917;28;20052;-77
2023/04/28 08:46:49;;;;;;;2.65;1.27;;;;;;;;;;5023823;22;20178;-77
2023/04/28 08:49:16;;;;;;;1.00;0.90;;;;;;;;;;5037221;28;20104;-78
2023/04/28 08:51:49;;;;;;;1.67;1.33;;;;;;;;;;5038655;28;20036;-78
2023/04/28 08:54:15;;;;;;;1.65;1.20;;;;;;;;;;5066433;28;20052;-76
2023/04/28 08:56:44;;;;;;;4.95;1.50;;;;;;;;;;5045363;28;20048;-77
2023/04/28 08:59:09;;;;;;;3.28;1.33;;;;;;;;;;5045940;28;20025;-76
2023/04/28 09:01:35;;;;;;;1.88;1.50;;;;;;;;;;5042135;28;20033;-77
2023/04/28 09:04:01;;;;;;;5.07;1.15;;;;;;;;;;5043300;28;20029;-79
2023/04/28 09:06:33;;;;;;;3.65;1.10;;;;;;;;;;5043729;28;20033;-79
2023/04/28 09:09:19;;;;;;;1.50;1.20;;;;;;;;;;5045423;28;20024;-78
2023/04/28 09:12:01;;;;;;;5.70;1.55;;;;;;;;;;5059358;28;20017;-78
2023/04/28 09:14:27;;;;;;;2.63;1.65;;;;;;;;;;5058864;28;20598;-77
2023/04/28 09:16:53;;;;;;;7.30;1.60;;;;;;;;;;5050162;28;20029;-78
2023/04/28 09:19:19;;;;;;;1.42;1.30;;;;;;;;;;5060457;28;20047;-78
2023/04/28 09:21:56;;;;;;;1.35;1.15;;;;;;;;;;5059192;28;20024;-79
2023/04/28 09:24:35;;;;;;;1.40;1.30;;;;;;;;;;5025555;28;20064;-79
2023/04/28 09:27:03;;;;;;;4.35;1.70;;;;;;;;;;5044037;28;20039;-78
2023/04/28 09:29:51;;;;;;;3.25;1.30;;;;;;;;;;5028614;28;20028;-77
2023/04/28 09:32:26;;;;;;;5.43;1.67;;;;;;;;;;5046277;28;20505;-76
2023/04/28 09:34:55;;;;;;;3.28;1.63;;;;;;;;;;5023334;28;20072;-76
2023/04/28 09:37:22;;;;;;;2.58;1.48;;;;;;;;;;5044334;28;20020;-79
2023/04/28 09:39:52;;;;;;;2.60;1.67;;;;;;;;;;5014644;28;20047;-78
2023/04/28 09:42:39;;;;;;;2.47;1.58;;;;;;;;;;5062539;28;20032;-79
2023/04/28 09:45:15;;;;;;;3.08;1.48;;;;;;;;;;5046710;28;20101;-80
2023/04/28 09:47:42;;;;;;;2.35;1.60;;;;;;;;;;5064142;28;20059;-79
2023/04/28 09:50:13;;;;;;;3.58;1.63;;;;;;;;;;5046513;28;20090;-80
2023/04/28 09:52:47;;;;;;;1.50;1.35;;;;;;;;;;5044361;28;20024;-80
2023/04/28 09:55:19;;;;;;;4.45;1.80;;;;;;;;;;5063001;28;20063;-79
2023/04/28 09:57:44;;;;;;;2.22;1.40;;;;;;;;;;5044810;28;20567;-76
2023/04/28 10:00:10;;;;;;;1.75;1.38;;;;;;;;;;5043446;28;20068;-77
2023/04/28 10:02:36;;;;;;;3.13;1.73;;;;;;;;;;5059823;28;20029;-77
2023/04/28 10:05:02;;;;;;;2.10;1.58;;;;;;;;;;5045034;28;20055;-78
2023/04/28 10:07:29;;;;;;;1.98;1.40;;;;;;;;;;5045800;28;20171;-77
2023/04/28 10:09:55;;;;;;;4.15;1.73;;;;;;;;;;5062065;28;20021;-78
2023/04/28 10:12:21;;;;;;;2.78;1.50;;;;;;;;;;5044282;28;20031;-79
2023/04/28 10:14:49;;;;;;;3.15;1.83;;;;;;;;;;5056721;28;20021;-76
2023/04/28 10:17:21;;;;;;;2.15;1.30;;;;;;;;;;5062064;28;20355;-78
2023/04/28 10:19:51;;;;;;;3.15;1.75;;;;;;;;;;5062674;28;20052;-78
2023/04/28 10:22:31;;;;;;;2.22;1.52;;;;;;;;;;5029136;28;20033;-78
2023/04/28 10:25:34;;;;;;;3.30;1.83;;;;;;;;;;5047764;28;20029;-78
2023/04/28 10:28:02;;;;;;;2.42;1.45;;;;;;;;;;5046636;28;20029;-79
2023/04/28 10:30:28;;;;;;;2.20;1.05;;;;;;;;;;5016838;28;20519;-76
2023/04/28 10:33:12;;;;;;;1.58;1.35;;;;;;;;;;5050509;28;20028;-77
2023/04/28 10:35:44;;;;;;;2.13;1.25;;;;;;;;;;5051313;28;20045;-77
2023/04/28 10:38:17;;;;;;;1.38;1.23;;;;;;;;;;5023408;28;20041;-79
2023/04/28 10:40:49;;;;;;;1.30;1.20;;;;;;;;;;5043933;28;20035;-77
2023/04/28 10:43:24;;;;;;;1.75;1.13;;;;;;;;;;5042599;28;20447;-78
2023/04/28 10:45:52;;;;;;;1.63;1.20;;;;;;;;;;5042932;28;20044;-77
2023/04/28 10:48:33;;;;;;;1.65;1.30;;;;;;;;;;5040585;28;20132;-76
2023/04/28 10:51:17;;;;;;;2.55;1.25;;;;;;;;;;5039659;28;20087;-76
2023/04/28 10:56:11;;;;;;;1.20;1.02;;;;;;;;;;5058823;28;20021;-76
2023/04/28 10:58:44;;;;;;;1.02;0.93;;;;;;;;;;5009186;28;20029;-76
2023/04/28 11:01:19;;;;;;;5.05;1.30;;;;;;;;;;5042469;28;20099;-76
2023/04/28 11:03:53;;;;;;;5.30;1.27;;;;;;;;;;5062829;28;20057;-77
2023/04/28 11:06:35;;;;;;;1.30;0.80;;;;;;;;;;5060408;28;20037;-76
2023/04/28 11:09:14;;;;;;;2.15;0.75;;;;;;;;;;5041150;28;20156;-78
2023/04/28 11:12:04;;;;;;;2.33;1.23;;;;;;;;;;5058568;28;20028;-78
2023/04/28 11:14:32;;;;;;;3.88;0.80;;;;;;;;;;5061796;28;20090;-78
2023/04/28 11:17:05;;;;;;;1.70;0.98;;;;;;;;;;5026891;28;20037;-79
2023/04/28 11:19:47;;;;;;;0.63;0.63;;;;;;;;;;5060557;28;20112;-77
2023/04/28 11:22:14;;;;;;;3.50;1.45;;;;;;;;;;5047044;28;20029;-77
2023/04/28 11:24:40;;;;;;;2.25;1.08;;;;;;;;;;5044840;28;20024;-80
2023/04/28 11:27:05;;;;;;;1.98;1.25;;;;;;;;;;5043669;28;20067;-78
2023/04/28 11:29:37;;;;;;;1.77;1.00;;;;;;;;;;5052059;28;20033;-76
2023/04/28 11:32:03;;;;;;;1.80;1.05;;;;;;;;;;5040180;28;20033;-78
2023/04/28 11:34:28;;;;;;;2.15;1.00;;;;;;;;;;5018445;28;20037;-78
2023/04/28 11:36:54;;;;;;;0.70;0.70;;;;;;;;;;5035418;28;20128;-77
2023/04/28 11:39:30;;;;;;;2.72;0.80;;;;;;;;;;5020689;28;20029;-77
2023/04/28 11:41:56;;;;;;;0.70;0.70;;;;;;;;;;5021534;28;20025;-78
2023/04/28 11:44:26;;;;;;;2.75;1.02;;;;;;;;;;5041214;28;20109;-78
2023/04/28 11:46:59;;;;;;;0.60;0.50;;;;;;;;;;5018294;28;20045;-77
2023/04/28 11:49:27;;;;;;;0.43;0.43;;;;;;;;;;5021998;28;20135;-77
2023/04/28 11:51:53;;;;;;;1.35;0.88;;;;;;;;;;5020589;28;20296;-77
2023/04/28 11:54:22;;;;;;;2.30;1.05;;;;;;;;;;5037901;28;20435;-77
2023/04/28 11:56:48;;;;;;;1.53;1.03;;;;;;;;;;4999658;28;20026;-77
2023/04/28 11:59:14;;;;;;;2.15;1.15;;;;;;;;;;5018686;28;20111;-78
2023/04/28 12:01:50;;;;;;;1.27;1.08;;;;;;;;;;5020399;28;20075;-77
2023/04/28 12:04:36;;;;;;;1.23;0.80;;;;;;;;;;5035642;28;20025;-78
2023/04/28 12:07:15;;;;;;;1.55;0.80;;;;;;;;;;4989685;28;20484;-77
2023/04/28 12:09:45;;;;;;;2.65;0.82;;;;;;;;;;5006834;28;20068;-77
2023/04/28 12:12:14;;;;;;;;;;;;;;;;;;4991931;28;20386;-77
2023/04/28 12:14:56;;;;;;;0.68;0.68;;;;;;;;;;5026966;28;19913;-78
2023/04/28 12:17:24;;;;;;;0.90;0.75;;;;;;;;;;5004473;28;20060;-78
2023/04/28 12:19:49;;;;;;;0.82;0.73;;;;;;;;;;5019001;28;20037;-77
2023/04/28 12:22:16;;;;;;;1.67;1.05;;;;;;;;;;5022113;28;20052;-76
2023/04/28 12:24:42;;;;;;;1.08;0.57;;;;;;;;;;5026147;28;20053;-77
2023/04/28 12:27:15;;;;;;;0.90;0.60;;;;;;;;;;5026020;28;20056;-75
2023/04/28 12:29:41;;;;;;;3.53;0.88;;;;;;;;;;5025510;28;20473;-76
2023/04/28 12:32:10;;;;;;;1.80;1.20;;;;;;;;;;5010026;28;20064;-76
2023/04/28 12:34:36;;;;;;;0.32;0.30;;;;;;;;;;5009711;28;20021;-79
2023/04/28 12:37:02;;;;;;;1.60;0.63;;;;;;;;;;5010101;28;20363;-77
2023/04/28 12:39:28;;;;;;;0.68;0.60;;;;;;;;;;4994826;28;20061;-77
2023/04/28 12:41:58;;;;;;;3.92;0.80;;;;;;;;;;5026114;28;20041;-76
2023/04/28 12:44:23;;;;;;;0.73;0.60;;;;;;;;;;5009694;28;20025;-76
2023/04/28 12:46:50;;;;;;;1.67;1.10;;;;;;;;;;5009615;28;20042;-76
2023/04/28 12:49:15;;;;;;;0.82;0.63;;;;;;;;;;5008625;28;20096;-75
2023/04/28 12:51:41;;;;;;;0.85;0.68;;;;;;;;;;5024522;28;20076;-77
2023/04/28 12:54:07;;;;;;;1.17;0.80;;;;;;;;;;5007776;28;20497;-78
2023/04/28 12:56:32;;;;;;;0.88;0.77;;;;;;;;;;5026315;28;20036;-78
2023/04/28 12:58:59;;;;;;;0.77;0.70;;;;;;;;;;5015355;28;20059;-77
2023/04/28 13:01:25;;;;;;;0.50;0.50;;;;;;;;;;5037824;28;20029;-77
2023/04/28 13:03:52;;;;;;;0.80;0.57;;;;;;;;;;5021945;28;20447;-78
2023/04/28 13:06:17;;;;;;;0.50;0.50;;;;;;;;;;5038087;28;20155;-77
2023/04/28 13:08:43;;;;;;;1.17;0.60;;;;;;;;;;5020956;28;20060;-77
2023/04/28 13:11:09;;;;;;;0.60;0.50;;;;;;;;;;5036792;28;20025;-76
2023/04/28 13:13:36;;;;;;;1.13;0.80;;;;;;;;;;5054422;28;20021;-77
2023/04/28 13:16:03;;;;;;;1.77;0.77;;;;;;;;;;5054543;28;20123;-76
2023/04/28 13:18:29;;;;;;;1.95;1.02;;;;;;;;;;5054485;28;20033;-77
2023/04/28 13:20:54;;;;;;;0.68;0.68;;;;;;;;;;5054422;28;20025;-77
2023/04/28 13:23:20;;;;;;;0.52;0.52;;;;;;;;;;5021198;28;20028;-77
2023/04/28 13:25:46;;;;;;;0.60;0.60;;;;;;;;;;5055533;28;20033;-79
2023/04/28 13:28:12;;;;;;;1.27;0.80;;;;;;;;;;5021056;28;20511;-77
2023/04/28 13:30:37;;;;;;;0.70;0.52;;;;;;;;;;5055563;28;20077;-78
2023/04/28 13:33:03;;;;;;;0.82;0.47;;;;;;;;;;5021374;28;20025;-78
2023/04/28 13:35:28;;;;;;;1.02;0.93;;;;;;;;;;5055609;28;20029;-78
2023/04/28 13:38:00;;;;;;;0.70;0.60;;;;;;;;;;5005180;28;20106;-76
2023/04/28 13:40:26;;;;;;;0.80;0.70;;;;;;;;;;5022884;28;20112;-76
2023/04/28 13:42:51;;;;;;;1.48;0.82;;;;;;;;;;5021132;28;20111;-78
2023/04/28 13:45:17;;;;;;;0.77;0.47;;;;;;;;;;5055221;28;20154;-75
2023/04/28 13:47:42;;;;;;;0.60;0.60;;;;;;;;;;5020826;28;20139;-78
2023/04/28 13:50:08;;;;;;;1.10;0.70;;;;;;;;;;5020919;28;20041;-78
2023/04/28 13:52:33;;;;;;;1.17;0.80;;;;;;;;;;5021242;28;20029;-76
2023/04/28 13:54:58;;;;;;;0.45;0.45;;;;;;;;;;5037589;28;20032;-77
2023/04/28 13:57:24;;;;;;;1.10;0.77;;;;;;;;;;5020928;28;20052;-76
2023/04/28 13:59:49;;;;;;;0.65;0.63;;;;;;;;;;5019821;28;20036;-77
2023/04/28 14:02:15;;;;;;;1.27;0.52;;;;;;;;;;5017440;28;20045;-75
2023/04/28 14:04:46;;;;;;;2.03;0.80;;;;;;;;;;5054774;28;20025;-76
2023/04/28 14:07:12;;;;;;;0.65;0.50;;;;;;;;;;5037888;28;20068;-77
2023/04/28 14:09:39;;;;;;;0.90;0.60;;;;;;;;;;5036763;28;20072;-76
2023/04/28 14:12:05;;;;;;;0.98;0.70;;;;;;;;;;5036959;28;20053;-77
2023/04/28 14:14:30;;;;;;;3.10;0.70;;;;;;;;;;5053620;28;20425;-77
2023/04/28 14:16:56;;;;;;;2.85;0.47;;;;;;;;;;5036546;28;20025;-77
2023/04/28 14:19:21;;;;;;;1.63;0.65;;;;;;;;;;5036582;28;20036;-77
2023/04/28 14:21:46;;;;;;;0.60;0.60;;;;;;;;;;5020505;28;20512;-77
2023/04/28 14:24:12;;;;;;;0.50;0.50;;;;;;;;;;5036806;28;20079;-77
2023/04/28 14:26:37;;;;;;;1.17;1.00;;;;;;;;;;5003863;28;20036;-76
2023/04/28 14:29:04;;;;;;;0.90;0.57;;;;;;;;;;5020612;28;20029;-77
2023/04/28 14:31:30;;;;;;;0.73;0.60;;;;;;;;;;5036561;28;20477;-78
2023/04/28 14:33:55;;;;;;;1.02;0.90;;;;;;;;;;5020181;28;20025;-77
2023/04/28 14:36:20;;;;;;;0.55;0.50;;;;;;;;;;5054554;28;20021;-78
2023/04/28 14:38:46;;;;;;;0.57;0.57;;;;;;;;;;5036474;28;20032;-77
2023/04/28 14:41:11;;;;;;;1.27;0.70;;;;;;;;;;5054185;28;20424;-78
2023/04/28 14:43:37;;;;;;;1.20;0.88;;;;;;;;;;5036209;28;20044;-77
2023/04/28 14:46:03;;;;;;;1.60;0.90;;;;;;;;;;5035799;28;20429;-77
2023/04/28 14:48:31;;;;;;;0.60;0.60;;;;;;;;;;5020248;28;20025;-78
2023/04/28 14:50:56;;;;;;;0.47;0.35;;;;;;;;;;5020334;28;20033;-76
2023/04/28 14:53:22;;;;;;;0.77;0.70;;;;;;;;;;5000552;28;20116;-76
2023/04/28 14:55:48;;;;;;;0.35;0.35;;;;;;;;;;5016193;28;20458;-77
2023/04/28 14:58:14;;;;;;;0.95;0.73;;;;;;;;;;5034262;28;20037;-77
2023/04/28 15:00:39;;;;;;;0.60;0.60;;;;;;;;;;5000349;28;20029;-77